createdAt,value
2023-05-09T00:05:37.218Z,100722.90
2023-05-09T00:15:44.372Z,100713.35
2023-05-09T00:25:48.568Z,100707.77
2023-05-09T00:35:54.342Z,100707.34
2023-05-09T00:46:00.448Z,100707.29
2023-05-09T00:56:08.234Z,100703.95
2023-05-09T01:06:23.697Z,100696.98
2023-05-09T01:16:37.038Z,100694.46
2023-05-09T01:26:53.333Z,100688.88
2023-05-09T01:37:02.434Z,100675.13
2023-05-09T01:47:08.793Z,100675.30
2023-05-09T01:57:15.690Z,100672.45
2023-05-09T02:07:20.127Z,100669.05
2023-05-09T02:17:25.816Z,100659.73
2023-05-09T02:27:31.928Z,100663.85
2023-05-09T02:37:38.228Z,100675.39
2023-05-09T02:47:44.120Z,100671.85
2023-05-09T02:57:56.215Z,100666.94
2023-05-09T03:08:08.173Z,100661.29
2023-05-09T03:18:13.963Z,100666.27
2023-05-09T03:28:19.819Z,100664.52
2023-05-09T03:38:25.444Z,100672.33
2023-05-09T03:48:31.165Z,100671.11
2023-05-09T03:58:36.982Z,100668.59
2023-05-09T04:08:43.193Z,100671.95
2023-05-09T04:18:48.834Z,100662.63
2023-05-09T04:28:54.594Z,100652.67
2023-05-09T04:39:00.427Z,100658.81
2023-05-09T04:49:06.073Z,100658.27
2023-05-09T04:59:11.741Z,100651.92
2023-05-09T05:09:17.493Z,100640.75
2023-05-09T05:19:23.281Z,100631.41
2023-05-09T05:29:28.966Z,100624.52
2023-05-09T05:39:34.640Z,100630.83
2023-05-09T05:49:40.352Z,100624.34
2023-05-09T05:59:47.754Z,100616.44
2023-05-09T06:09:53.373Z,100612.89
2023-05-09T06:19:59.130Z,100605.83
2023-05-09T06:30:14.167Z,100604.91
2023-05-09T06:40:30.155Z,100604.34
2023-05-09T06:50:35.745Z,100595.70
2023-05-09T07:00:41.481Z,100588.54
2023-05-09T07:10:47.302Z,100592.20
2023-05-09T07:20:53.148Z,100577.42
2023-05-09T07:30:59.101Z,100571.34
2023-05-09T07:41:04.755Z,100565.16
2023-05-09T07:51:10.509Z,100564.35
2023-05-09T08:01:16.312Z,100548.36
2023-05-09T08:11:22.040Z,100539.85
2023-05-09T08:21:27.810Z,100543.52
2023-05-09T08:31:33.490Z,100543.05
2023-05-09T08:41:40.077Z,100527.40
2023-05-09T08:51:47.198Z,100514.98
2023-05-09T09:01:54.570Z,100506.90
2023-05-09T09:12:01.079Z,100504.21
2023-05-09T09:22:07.380Z,100503.81
2023-05-09T09:32:13.104Z,100499.82
2023-05-09T09:42:18.872Z,100492.27
2023-05-09T09:52:27.133Z,100494.91
2023-05-09T10:02:33.297Z,100489.64
2023-05-09T10:12:40.805Z,100485.62
2023-05-09T10:22:47.065Z,100468.98
2023-05-09T10:32:55.616Z,100451.05
2023-05-09T10:43:01.505Z,100444.45
2023-05-09T10:53:16.985Z,100429.60
2023-05-09T11:03:24.788Z,100400.89
2023-05-09T11:13:33.784Z,100396.78
2023-05-09T11:23:40.236Z,100391.29
2023-05-09T11:33:47.886Z,100374.77
2023-05-09T11:43:56.270Z,100362.64
2023-05-09T11:54:01.949Z,100344.80
2023-05-09T12:04:09.165Z,100326.22
2023-05-09T12:14:27.664Z,100326.20
2023-05-09T12:24:36.127Z,100302.51
2023-05-09T12:34:42.202Z,100284.46
2023-05-09T12:44:52.059Z,100274.76
2023-05-09T12:55:05.521Z,100264.14
2023-05-09T13:05:16.010Z,100242.84
2023-05-09T13:15:24.230Z,100232.80
2023-05-09T13:25:28.469Z,100213.58
2023-05-09T13:35:34.613Z,100203.56
2023-05-09T13:45:40.348Z,100194.80
2023-05-09T13:55:47.238Z,100184.23
2023-05-09T14:05:53.541Z,100179.91
2023-05-09T14:15:59.238Z,100160.16
2023-05-09T14:26:05.142Z,100145.93
2023-05-09T14:36:12.061Z,100141.34
2023-05-09T14:46:18.196Z,100136.32
2023-05-09T14:56:24.017Z,100121.23
2023-05-09T15:06:30.461Z,100112.19
2023-05-09T15:16:36.394Z,100107.14
2023-05-09T15:26:42.122Z,100085.23
2023-05-09T15:36:47.751Z,100070.85
2023-05-09T15:46:55.055Z,100054.39
2023-05-09T15:57:01.035Z,100056.16
2023-05-09T16:07:06.761Z,100047.67
2023-05-09T16:17:12.601Z,100036.37
2023-05-09T16:27:18.362Z,100019.95
2023-05-09T16:37:24.323Z,100007.15
2023-05-09T16:47:30.056Z,100003.39
2023-05-09T16:57:35.746Z,99998.20
2023-05-09T17:07:41.485Z,99994.54
2023-05-09T17:17:47.914Z,99986.22
2023-05-09T17:27:53.775Z,99983.05
2023-05-09T17:37:59.508Z,99974.48
2023-05-09T17:48:05.223Z,99974.81
2023-05-09T17:58:11.336Z,99979.16
2023-05-09T18:08:17.536Z,99984.95
2023-05-09T18:18:23.315Z,99983.27
2023-05-09T18:28:29.292Z,99979.00
2023-05-09T18:38:38.252Z,99987.39
2023-05-09T18:48:44.102Z,99995.28
2023-05-09T18:58:50.748Z,100001.67
2023-05-09T19:08:56.577Z,100000.20
2023-05-09T19:19:04.003Z,100003.58
2023-05-09T19:29:10.052Z,99998.20
2023-05-09T19:39:15.832Z,99991.77
2023-05-09T19:49:21.765Z,99984.61
2023-05-09T19:59:27.520Z,99987.92
2023-05-09T20:09:33.433Z,99983.34
2023-05-09T20:19:39.628Z,99984.08
2023-05-09T20:29:46.148Z,99985.61
2023-05-09T20:39:51.999Z,99983.00
2023-05-09T20:50:01.216Z,99983.04
2023-05-09T21:00:08.689Z,99976.47
2023-05-09T21:10:14.747Z,99974.68
2023-05-09T21:20:20.998Z,99965.49
2023-05-09T21:30:26.978Z,99971.04
2023-05-09T21:40:33.388Z,99969.36
2023-05-09T21:50:39.179Z,99962.20
2023-05-09T22:00:44.989Z,99959.25
2023-05-09T22:10:51.129Z,99957.54
2023-05-09T22:20:57.103Z,99953.02
2023-05-09T22:31:03.505Z,99953.92
2023-05-09T22:41:09.530Z,99945.77
2023-05-09T22:51:15.744Z,99944.42
2023-05-09T23:01:21.775Z,99937.44
2023-05-09T23:11:27.588Z,99935.46
2023-05-09T23:21:33.856Z,99924.13
2023-05-09T23:31:39.564Z,99919.18
2023-05-09T23:41:45.229Z,99914.63
2023-05-09T23:51:50.895Z,99908.41
